Wednesday, January 17, 2018, 9:36 AM EST
Back to Local

KOWD, Norwood Memorial Airport

Location: Norwood, MA, United States Lat: 42.183
Local Time: 9:36 AM EST (14:36 GMT) Lon: -71.167
Time Zone: US/Eastern Elev: 49 ft

Show me the last for .
Show Decoded

2018-01-17 08:53 METAR KOWD 171353Z 00000KT 3/4SM -SN BR OVC006 01/00 A3029 RMK AO2 SLP256 P0003
                 T00110000 =
2018-01-17 08:00 METAR KOWD 171300Z 00000KT 3/4SM -SN BR BKN005 OVC011 01/00 A3029 RMK AO2 P0000
                 T00110000 =
2018-01-17 07:53 METAR KOWD 171253Z 00000KT 1/2SM SN FG SCT005 OVC013 01/00 A3029 RMK AO2 SLP259
                 P0004 T00110000 =
2018-01-17 07:37 METAR KOWD 171237Z 00000KT 1/2SM SN FG FEW005 OVC014 01/01 A3030 RMK AO2 P0003
                 T00110006 =
2018-01-17 07:24 METAR KOWD 171224Z 00000KT 1SM -SN BR FEW004 OVC018 01/01 A3030 RMK AO2 P0002
                 T00110006 =
2018-01-17 06:53 METAR KOWD 171153Z 05003KT 1 1/4SM -SN BR OVC024 01/M01 A3031 RMK AO2 SLP264
                 P0003 60003 70003 T00111006 10017 20011 58011 =
2018-01-17 05:53 METAR KOWD 171053Z AUTO 00000KT 1 3/4SM -SN BR SCT008 OVC026 01/M01 A3032 RMK
                 AO2 SNB21 SLP268 P0000 T00111006 =
2018-01-17 05:37 METAR KOWD 171037Z AUTO 00000KT 2 1/2SM -SN BKN009 OVC033 02/M01 A3033 RMK AO2
                 SNB21 P0000 T00171011 =
2018-01-17 04:53 METAR KOWD 170953Z AUTO 13003KT 10SM OVC030 02/M02 A3034 RMK AO2 SLP274
                 T00171017 =
2018-01-17 04:50 METAR KOWD 170950Z AUTO 00000KT 10SM OVC030 02/M02 A3034 RMK AO2 =
2018-01-17 04:08 METAR KOWD 170908Z AUTO 16003KT 10SM OVC029 02/M02 A3035 RMK AO2 T00171022 =
2018-01-17 03:53 METAR KOWD 170853Z AUTO 14003KT 10SM OVC030 02/M02 A3035 RMK AO2 SLP277
                 T00171022 56014 =
2018-01-17 03:51 METAR KOWD 170851Z AUTO 14004KT 10SM OVC030 02/M02 A3035 RMK AO2 =
2018-01-17 03:18 METAR KOWD 170818Z AUTO 15004KT 10SM OVC029 02/M03 A3037 RMK AO2 T00171028 =
2018-01-17 02:53 METAR KOWD 170753Z AUTO 14003KT 10SM OVC032 02/M03 A3037 RMK AO2 SLP285
                 T00171028 =
2018-01-17 01:53 METAR KOWD 170653Z AUTO 16003KT 10SM OVC034 02/M03 A3039 RMK AO2 SLP291
                 T00171028 =
2018-01-17 00:53 METAR KOWD 170553Z AUTO 00000KT 10SM OVC031 02/M03 A3038 RMK AO2 SLP289
                 T00171028 10017 20000 56019 =
2018-01-16 23:53 METAR KOWD 170453Z AUTO 00000KT 10SM BKN070 00/M02 A3040 RMK AO2 SLP295
                 T00001022 400281050 =
2018-01-16 22:53 METAR KOWD 170353Z AUTO 00000KT 10SM OVC070 01/M03 A3042 RMK AO2 SLP301
                 T00061028 =
2018-01-16 22:24 METAR KOWD 170324Z AUTO 00000KT 10SM BKN030 OVC070 01/M03 A3043 RMK AO2
                 T00061028 =
2018-01-16 22:16 METAR KOWD 170316Z AUTO 14003KT 10SM BKN028 OVC070 01/M03 A3044 RMK AO2
                 T00061028 =
2018-01-16 21:53 METAR KOWD 170253Z AUTO 15003KT 10SM FEW070 01/M03 A3044 RMK AO2 SLP307
                 T00061028 58008 =
2018-01-16 20:53 METAR KOWD 170153Z AUTO 00000KT 10SM OVC031 01/M02 A3045 RMK AO2 SLP310
                 T00111022 =
2018-01-16 19:53 METAR KOWD 170053Z 17003KT 10SM BKN031 OVC044 01/M02 A3046 RMK AO2 SLP314
                 T00111022 =
2018-01-16 18:53 METAR KOWD 162353Z 00000KT 10SM OVC075 01/M03 A3046 RMK AO2 SLP315 T00111033
                 10028 20006 53002 =
2018-01-16 17:53 METAR KOWD 162253Z 00000KT 10SM SCT031 OVC075 01/M04 A3046 RMK AO2 SLP315
                 T00061039 =
2018-01-16 16:53 METAR KOWD 162153Z 00000KT 10SM OVC080 02/M05 A3045 RMK AO2 SLP312 T00171050 =
2018-01-16 15:53 METAR KOWD 162053Z 17004KT 10SM OVC080 03/M05 A3045 RMK AO2 SLP313 T00281050
                 56005 =
2018-01-16 14:53 METAR KOWD 161953Z 24004KT 10SM OVC080 02/M05 A3046 RMK AO2 SLP314 T00221050 =
2018-01-16 13:53 METAR KOWD 161853Z 21005KT 10SM OVC085 02/M06 A3046 RMK AO2 SLP314 T00171061 =
2018-01-16 12:53 METAR KOWD 161753Z 23007KT 10SM OVC090 02/M06 A3047 RMK AO2 SLP318 60000
                 T00171061 10017 21050 56023 =
2018-01-16 12:27 METAR KOWD 161727Z 23007KT 10SM FEW026 OVC090 02/M06 A3048 RMK AO2 T00171061 =
2018-01-16 12:03 METAR KOWD 161703Z 00000KT 10SM BKN026 BKN090 01/M07 A3048 RMK AO2 T00111067 =
2018-01-16 11:53 METAR KOWD 161653Z 32004KT 10SM SCT026 02/M06 A3049 RMK AO2 SLP325 T00171061 =
2018-01-16 10:53 METAR KOWD 161553Z 00000KT 10SM OVC035 M01/M07 A3052 RMK AO2 SLP334 T10061067 =
2018-01-16 09:53 METAR KOWD 161453Z 00000KT 10SM OVC036 M02/M08 A3054 RMK AO2 SLP341 60000
                 T10171078 53004 =

Support USWX by starting your Amazon purchase here.